createdAt,value
2022-11-19T00:01:10.999Z,5.40
2022-11-19T00:03:39.308Z,5.30
2022-11-19T00:06:11.820Z,5.40
2022-11-19T00:08:39.522Z,5.50
2022-11-19T00:11:37.597Z,5.50
2022-11-19T00:14:04.732Z,5.40
2022-11-19T00:16:31.382Z,5.60
2022-11-19T00:18:57.967Z,5.50
2022-11-19T00:21:24.592Z,5.50
2022-11-19T00:23:54.649Z,5.40
2022-11-19T00:26:22.119Z,5.40
2022-11-19T00:28:48.746Z,5.40
2022-11-19T00:31:16.213Z,5.40
2022-11-19T00:33:44.146Z,5.40
2022-11-19T00:36:13.851Z,5.30
2022-11-19T00:38:40.804Z,5.20
2022-11-19T00:41:07.819Z,5.20
2022-11-19T00:43:46.885Z,5.10
2022-11-19T00:46:14.814Z,5.20
2022-11-19T00:48:41.447Z,5.30
2022-11-19T00:51:09.382Z,5.30
2022-11-19T00:53:36.654Z,5.30
2022-11-19T00:56:05.705Z,5.30
2022-11-19T00:58:32.387Z,5.20
2022-11-19T01:00:59.542Z,5.10
2022-11-19T01:03:27.039Z,5.10
2022-11-19T01:05:53.707Z,5.00
2022-11-19T01:08:20.387Z,4.90
2022-11-19T01:10:47.015Z,5.00
2022-11-19T01:13:32.309Z,5.00
2022-11-19T01:15:58.893Z,5.10
2022-11-19T01:18:26.994Z,5.10
2022-11-19T01:20:53.701Z,5.10
2022-11-19T01:23:20.836Z,5.10
2022-11-19T01:25:47.425Z,5.20
2022-11-19T01:28:14.090Z,5.10
2022-11-19T01:30:42.515Z,5.10
2022-11-19T01:33:09.609Z,5.00
2022-11-19T01:35:37.089Z,5.10
2022-11-19T01:38:04.662Z,5.10
2022-11-19T01:40:31.717Z,4.90
2022-11-19T01:42:58.454Z,5.00
2022-11-19T01:45:34.969Z,4.80
2022-11-19T01:48:27.209Z,4.70
2022-11-19T01:50:58.786Z,4.80
2022-11-19T01:53:31.615Z,4.70
2022-11-19T01:56:03.991Z,4.70
2022-11-19T01:58:53.941Z,4.80
2022-11-19T02:01:20.697Z,4.80
2022-11-19T02:03:49.194Z,4.70
2022-11-19T02:06:16.097Z,4.60
2022-11-19T02:08:45.510Z,4.70
2022-11-19T02:11:48.687Z,4.70
2022-11-19T02:14:44.441Z,4.60
2022-11-19T02:17:31.966Z,4.60
2022-11-19T02:20:13.418Z,4.70
2022-11-19T02:23:17.541Z,4.70
2022-11-19T02:26:21.684Z,4.50
2022-11-19T02:28:53.903Z,4.70
2022-11-19T02:31:38.386Z,4.70
2022-11-19T02:34:14.241Z,4.50
2022-11-19T02:37:00.223Z,4.50
2022-11-19T02:39:36.013Z,4.50
2022-11-19T02:42:28.025Z,4.40
2022-11-19T02:45:00.222Z,4.30
2022-11-19T02:47:40.740Z,4.40
2022-11-19T02:50:19.488Z,4.40
2022-11-19T02:52:47.546Z,4.40
2022-11-19T02:55:19.001Z,4.40
2022-11-19T02:57:56.463Z,4.40
2022-11-19T03:00:42.106Z,4.40
2022-11-19T03:03:33.092Z,4.30
2022-11-19T03:06:05.207Z,4.30
2022-11-19T03:08:31.980Z,4.20
2022-11-19T03:11:17.220Z,4.20
2022-11-19T03:14:26.871Z,4.30
2022-11-19T03:17:15.394Z,4.30
2022-11-19T03:20:18.674Z,4.30
2022-11-19T03:23:18.731Z,4.30
2022-11-19T03:25:50.966Z,4.00
2022-11-19T03:28:23.689Z,4.10
2022-11-19T03:30:52.353Z,4.10
2022-11-19T03:33:47.673Z,4.00
2022-11-19T03:36:19.856Z,4.10
2022-11-19T03:38:51.827Z,4.10
2022-11-19T03:41:20.690Z,4.20
2022-11-19T03:43:53.262Z,4.10
2022-11-19T03:46:22.158Z,4.10
2022-11-19T03:48:51.569Z,3.90
2022-11-19T03:51:27.478Z,3.90
2022-11-19T03:53:54.406Z,4.00
2022-11-19T03:56:24.378Z,3.90
2022-11-19T03:58:53.679Z,4.00
2022-11-19T04:01:21.406Z,4.00
2022-11-19T04:04:07.997Z,4.00
2022-11-19T04:06:34.654Z,3.90
2022-11-19T04:09:01.294Z,3.70
2022-11-19T04:13:53.420Z,3.90
2022-11-19T04:16:20.071Z,3.90
2022-11-19T04:18:46.664Z,3.90
2022-11-19T04:21:13.315Z,3.70
2022-11-19T04:23:39.934Z,3.40
2022-11-19T04:26:06.716Z,3.40
2022-11-19T04:28:33.362Z,3.40
2022-11-19T04:30:59.938Z,3.50
2022-11-19T04:33:26.556Z,3.60
2022-11-19T04:35:53.194Z,3.50
2022-11-19T04:38:19.815Z,3.60
2022-11-19T04:40:47.092Z,3.50
2022-11-19T04:43:13.683Z,3.40
2022-11-19T04:45:40.295Z,3.40
2022-11-19T04:48:07.031Z,3.50
2022-11-19T04:50:33.630Z,3.60
2022-11-19T04:53:00.214Z,3.50
2022-11-19T04:55:26.834Z,3.50
2022-11-19T04:57:53.525Z,3.50
2022-11-19T05:00:20.463Z,3.60
2022-11-19T05:02:47.050Z,3.60
2022-11-19T05:05:13.758Z,3.70
2022-11-19T05:07:40.378Z,3.50
2022-11-19T05:10:07.547Z,3.60
2022-11-19T05:12:34.162Z,3.50
2022-11-19T05:15:00.728Z,3.50
2022-11-19T05:17:27.326Z,3.60
2022-11-19T05:19:53.938Z,3.50
2022-11-19T05:22:20.528Z,3.50
2022-11-19T05:24:47.144Z,3.40
2022-11-19T05:27:13.807Z,3.50
2022-11-19T05:29:40.456Z,3.50
2022-11-19T05:32:07.095Z,3.50
2022-11-19T05:34:33.753Z,3.40
2022-11-19T05:37:00.411Z,3.50
2022-11-19T05:39:27.297Z,3.30
2022-11-19T05:41:54.201Z,3.30
2022-11-19T05:44:20.833Z,3.20
2022-11-19T05:46:47.404Z,3.30
2022-11-19T05:49:14.006Z,3.20
2022-11-19T05:51:40.591Z,3.30
2022-11-19T05:54:07.352Z,3.20
2022-11-19T05:56:34.029Z,3.20
2022-11-19T05:59:00.593Z,3.10
2022-11-19T06:01:29.229Z,3.20
2022-11-19T06:03:56.027Z,3.20
2022-11-19T06:06:23.424Z,3.10
2022-11-19T06:08:50.117Z,3.10
2022-11-19T06:11:36.019Z,3.10
2022-11-19T06:14:02.968Z,3.20
2022-11-19T06:16:29.550Z,3.00
2022-11-19T06:18:56.200Z,3.10
2022-11-19T06:21:22.818Z,3.10
2022-11-19T06:23:49.369Z,3.00
2022-11-19T06:26:24.025Z,3.00
2022-11-19T06:28:51.030Z,3.10
2022-11-19T06:31:18.022Z,2.90
2022-11-19T06:33:44.670Z,3.00
2022-11-19T06:36:11.803Z,3.00
2022-11-19T06:38:38.404Z,2.90
2022-11-19T06:41:05.231Z,2.90
2022-11-19T06:43:31.768Z,3.00
2022-11-19T06:45:58.385Z,3.00
2022-11-19T06:48:24.972Z,3.00
2022-11-19T06:50:51.527Z,3.00
2022-11-19T06:53:18.186Z,2.90
2022-11-19T06:55:44.733Z,2.90
2022-11-19T06:58:11.332Z,2.80
2022-11-19T07:00:37.891Z,2.80
2022-11-19T07:03:04.523Z,2.80
2022-11-19T07:05:31.158Z,2.80
2022-11-19T07:08:02.848Z,2.80
2022-11-19T07:10:30.319Z,2.60
2022-11-19T07:12:56.917Z,2.60
2022-11-19T07:15:23.515Z,2.60
2022-11-19T07:17:50.126Z,2.60
2022-11-19T07:20:17.560Z,2.60
2022-11-19T07:22:44.352Z,2.60
2022-11-19T07:25:14.401Z,2.60
2022-11-19T07:27:43.338Z,2.50
2022-11-19T07:30:10.732Z,2.50
2022-11-19T07:32:37.265Z,2.50
2022-11-19T07:35:03.965Z,2.50
2022-11-19T07:37:30.568Z,2.60
2022-11-19T07:39:57.208Z,2.50
2022-11-19T07:42:42.406Z,2.50
2022-11-19T07:45:09.813Z,2.50
2022-11-19T07:47:36.449Z,2.50
2022-11-19T07:50:04.244Z,2.50
2022-11-19T07:52:31.155Z,2.40
2022-11-19T07:54:57.803Z,2.40
2022-11-19T07:57:29.920Z,2.40
2022-11-19T07:59:56.897Z,2.40
2022-11-19T08:02:23.661Z,2.40
2022-11-19T08:04:50.261Z,2.20
2022-11-19T08:07:16.983Z,2.30
2022-11-19T08:09:43.634Z,2.20
2022-11-19T08:12:10.272Z,2.20
2022-11-19T08:14:36.896Z,2.30
2022-11-19T08:17:22.049Z,2.30
2022-11-19T08:19:48.661Z,2.40
2022-11-19T08:22:15.286Z,2.40
2022-11-19T08:24:41.846Z,2.30
2022-11-19T08:27:08.418Z,2.30
2022-11-19T08:29:34.967Z,2.40
2022-11-19T08:32:01.749Z,2.20
2022-11-19T08:34:28.478Z,2.10
2022-11-19T08:36:55.108Z,2.10
2022-11-19T08:39:21.662Z,2.00
2022-11-19T08:42:06.729Z,2.10
2022-11-19T08:44:33.394Z,2.10
2022-11-19T08:46:59.999Z,2.10
2022-11-19T08:49:26.583Z,2.10
2022-11-19T08:51:53.414Z,2.00
2022-11-19T08:54:20.377Z,2.00
2022-11-19T08:56:47.226Z,2.20
2022-11-19T08:59:14.149Z,2.00
2022-11-19T09:01:40.794Z,2.00
2022-11-19T09:04:07.342Z,2.10
2022-11-19T09:06:34.835Z,2.20
2022-11-19T09:09:02.356Z,2.20
2022-11-19T09:11:28.943Z,2.10
2022-11-19T09:13:57.062Z,2.00
2022-11-19T09:16:23.685Z,1.80
2022-11-19T09:18:50.307Z,1.90
2022-11-19T09:21:16.982Z,1.90
2022-11-19T09:23:43.621Z,2.00
2022-11-19T09:26:16.154Z,2.10
2022-11-19T09:28:43.711Z,2.40
2022-11-19T09:31:18.317Z,2.40
2022-11-19T09:33:48.521Z,2.50
2022-11-19T09:36:15.801Z,2.40
2022-11-19T09:38:42.611Z,2.10
2022-11-19T09:41:32.970Z,2.20
2022-11-19T09:44:24.000Z,2.40
2022-11-19T09:46:50.875Z,2.70
2022-11-19T09:49:27.258Z,2.70
2022-11-19T09:51:59.485Z,2.70
2022-11-19T09:54:26.515Z,2.60
2022-11-19T09:56:59.179Z,2.60
2022-11-19T09:59:39.690Z,2.70
2022-11-19T10:02:17.751Z,2.90
2022-11-19T10:04:45.832Z,3.20
2022-11-19T10:07:40.198Z,3.30
2022-11-19T10:10:42.510Z,3.50
2022-11-19T10:13:44.633Z,3.50
2022-11-19T10:16:11.149Z,3.70
2022-11-19T10:18:49.533Z,3.50
2022-11-19T10:21:34.555Z,3.50
2022-11-19T10:24:34.137Z,3.70
2022-11-19T10:27:09.804Z,3.80
2022-11-19T10:29:40.235Z,3.70
2022-11-19T10:32:20.579Z,3.90
2022-11-19T10:34:50.504Z,4.10
2022-11-19T10:37:18.934Z,4.00
2022-11-19T10:39:57.454Z,4.00
2022-11-19T10:42:33.937Z,4.00
2022-11-19T10:45:05.822Z,4.00
2022-11-19T10:47:48.042Z,4.30
2022-11-19T10:50:24.366Z,4.40
2022-11-19T10:53:02.198Z,4.00
2022-11-19T10:55:37.296Z,3.90
2022-11-19T10:58:24.291Z,3.80
2022-11-19T11:00:54.514Z,4.00
2022-11-19T11:03:45.738Z,4.00
2022-11-19T11:06:12.383Z,4.10
2022-11-19T11:08:53.444Z,4.20
2022-11-19T11:11:50.414Z,4.00
2022-11-19T11:14:39.008Z,3.80
2022-11-19T11:17:18.446Z,3.80
2022-11-19T11:19:45.253Z,3.80
2022-11-19T11:22:11.914Z,3.90
2022-11-19T11:24:39.317Z,4.10
2022-11-19T11:27:23.946Z,4.10
2022-11-19T11:30:15.371Z,4.10
2022-11-19T11:32:42.498Z,4.20
2022-11-19T11:35:38.468Z,4.20
2022-11-19T11:38:05.625Z,4.20
2022-11-19T11:40:32.241Z,4.20
2022-11-19T11:42:58.959Z,4.30
2022-11-19T11:45:32.640Z,4.30
2022-11-19T11:48:16.041Z,4.30
2022-11-19T11:50:45.867Z,4.30
2022-11-19T11:53:16.057Z,4.30
2022-11-19T11:55:43.646Z,4.20
2022-11-19T11:58:32.054Z,4.30
2022-11-19T12:01:18.324Z,4.30
2022-11-19T12:03:56.820Z,4.30
2022-11-19T12:06:31.060Z,4.50
2022-11-19T12:09:09.736Z,4.40
2022-11-19T12:11:59.805Z,4.40
2022-11-19T12:14:46.360Z,4.20
2022-11-19T12:17:31.585Z,4.30
2022-11-19T12:20:25.478Z,4.40
2022-11-19T12:23:16.517Z,4.40
2022-11-19T12:25:59.567Z,4.40
2022-11-19T12:28:38.302Z,4.60
2022-11-19T12:31:37.901Z,4.50
2022-11-19T12:34:25.436Z,4.60
2022-11-19T12:37:01.187Z,4.50
2022-11-19T12:39:36.771Z,4.60
2022-11-19T12:42:35.740Z,4.40
2022-11-19T12:45:43.404Z,4.70
2022-11-19T12:48:19.128Z,4.80
2022-11-19T12:50:59.489Z,4.90
2022-11-19T12:53:38.678Z,5.00
2022-11-19T12:56:24.932Z,4.90
2022-11-19T12:59:01.979Z,4.80
2022-11-19T13:01:34.379Z,4.90
2022-11-19T13:04:04.831Z,5.00
2022-11-19T13:06:41.429Z,5.10
2022-11-19T13:09:39.180Z,5.10
2022-11-19T13:12:08.863Z,5.20
2022-11-19T13:14:41.100Z,5.10
2022-11-19T13:17:21.837Z,5.00
2022-11-19T13:19:53.893Z,5.20
2022-11-19T13:22:23.549Z,5.00
2022-11-19T13:24:54.612Z,5.10
2022-11-19T13:27:25.701Z,5.00
2022-11-19T13:29:58.289Z,5.00
2022-11-19T13:32:55.358Z,5.00
2022-11-19T13:35:28.948Z,5.10
2022-11-19T13:38:13.450Z,5.10
2022-11-19T13:40:48.762Z,5.10
2022-11-19T13:43:38.641Z,5.00
2022-11-19T13:46:11.102Z,4.80
2022-11-19T13:49:02.402Z,4.90
2022-11-19T13:51:34.643Z,4.90
2022-11-19T13:54:03.946Z,4.90
2022-11-19T13:56:45.526Z,4.90
2022-11-19T13:59:34.779Z,5.00
2022-11-19T14:02:34.327Z,5.00
2022-11-19T14:05:24.296Z,5.00
2022-11-19T14:08:12.212Z,5.00
2022-11-19T14:10:59.845Z,4.80
2022-11-19T14:13:54.533Z,4.80
2022-11-19T14:17:09.334Z,4.90
2022-11-19T14:20:08.424Z,4.80
2022-11-19T14:23:00.475Z,4.70
2022-11-19T14:25:57.658Z,4.80
2022-11-19T14:28:44.287Z,4.80
2022-11-19T14:31:10.992Z,4.70
2022-11-19T14:33:49.492Z,4.70
2022-11-19T14:36:37.882Z,4.70
2022-11-19T14:39:14.408Z,4.70
2022-11-19T14:41:44.495Z,4.60
2022-11-19T14:44:26.499Z,4.70
2022-11-19T14:46:53.187Z,4.70
2022-11-19T14:49:35.439Z,4.70
2022-11-19T14:52:02.710Z,4.70
2022-11-19T14:54:34.523Z,4.70
2022-11-19T14:57:15.730Z,4.70
2022-11-19T14:59:49.690Z,4.60
2022-11-19T15:02:23.682Z,4.60
2022-11-19T15:05:16.694Z,4.60
2022-11-19T15:07:54.537Z,4.40
2022-11-19T15:10:31.926Z,4.40
2022-11-19T15:13:25.593Z,4.30
2022-11-19T15:15:55.903Z,4.20
2022-11-19T15:18:22.453Z,4.20
2022-11-19T15:21:27.374Z,4.20
2022-11-19T15:24:10.956Z,4.10
2022-11-19T15:26:50.500Z,4.10
2022-11-19T15:29:54.147Z,4.00
2022-11-19T15:32:55.341Z,3.90
2022-11-19T15:35:30.774Z,4.00
2022-11-19T15:38:19.766Z,4.00
2022-11-19T15:40:49.477Z,3.90
2022-11-19T15:43:22.204Z,3.70
2022-11-19T15:46:03.126Z,3.70
2022-11-19T15:48:56.275Z,3.70
2022-11-19T15:51:23.635Z,3.70
2022-11-19T15:54:05.466Z,3.70
2022-11-19T15:56:36.502Z,3.70
2022-11-19T15:59:04.569Z,3.60
2022-11-19T16:01:34.550Z,3.70
2022-11-19T16:04:06.810Z,3.70
2022-11-19T16:06:33.734Z,3.60
2022-11-19T16:09:05.988Z,3.60
2022-11-19T16:11:55.971Z,3.50
2022-11-19T16:14:42.778Z,3.40
2022-11-19T16:17:41.788Z,3.40
2022-11-19T16:20:10.326Z,3.20
2022-11-19T16:22:50.459Z,3.10
2022-11-19T16:25:28.800Z,2.90
2022-11-19T16:27:58.190Z,2.90
2022-11-19T16:30:27.509Z,3.00
2022-11-19T16:32:58.983Z,3.00
2022-11-19T16:35:32.745Z,3.00
2022-11-19T16:38:00.778Z,3.00
2022-11-19T16:40:48.501Z,3.00
2022-11-19T16:43:15.321Z,3.00
2022-11-19T16:45:45.443Z,3.00
2022-11-19T16:48:49.893Z,3.00
2022-11-19T16:51:45.866Z,3.00
2022-11-19T16:54:30.015Z,2.90
2022-11-19T16:56:56.816Z,2.80
2022-11-19T16:59:23.993Z,2.70
2022-11-19T17:01:59.393Z,2.70
2022-11-19T17:04:30.941Z,2.40
2022-11-19T17:06:58.745Z,2.10
2022-11-19T17:10:07.240Z,2.10
2022-11-19T17:12:35.413Z,2.10
2022-11-19T17:15:40.656Z,2.00
2022-11-19T17:18:14.801Z,1.80
2022-11-19T17:20:44.225Z,1.90
2022-11-19T17:23:20.901Z,2.10
2022-11-19T17:25:53.210Z,2.20
2022-11-19T17:28:30.516Z,2.20
2022-11-19T17:30:57.857Z,2.20
2022-11-19T17:33:24.738Z,2.20
2022-11-19T17:35:52.213Z,2.20
2022-11-19T17:38:19.871Z,2.20
2022-11-19T17:40:49.756Z,2.20
2022-11-19T17:43:42.415Z,2.20
2022-11-19T17:46:09.488Z,2.20
2022-11-19T17:48:40.281Z,2.20
2022-11-19T17:51:09.726Z,2.10
2022-11-19T17:53:36.290Z,2.00
2022-11-19T17:56:04.382Z,1.90
2022-11-19T17:58:31.135Z,2.00
2022-11-19T18:00:57.714Z,2.00
2022-11-19T18:03:24.327Z,2.00
2022-11-19T18:05:50.966Z,2.00
2022-11-19T18:08:17.707Z,2.00
2022-11-19T18:10:46.724Z,2.00
2022-11-19T18:13:16.818Z,1.80
2022-11-19T18:15:43.525Z,1.70
2022-11-19T18:18:10.083Z,1.80
2022-11-19T18:20:37.404Z,1.60
2022-11-19T18:23:04.410Z,1.50
2022-11-19T18:25:31.089Z,1.60
2022-11-19T18:27:57.785Z,1.60
2022-11-19T18:30:24.472Z,1.50
2022-11-19T18:32:51.111Z,1.40
2022-11-19T18:35:19.118Z,1.40
2022-11-19T18:37:46.016Z,1.40
2022-11-19T18:40:13.988Z,1.50
2022-11-19T18:43:00.622Z,1.50
2022-11-19T18:45:27.665Z,1.60
2022-11-19T18:47:54.354Z,1.60
2022-11-19T18:50:24.349Z,1.60
2022-11-19T18:52:53.514Z,1.60
2022-11-19T18:55:20.170Z,1.70
2022-11-19T18:57:46.747Z,1.70
2022-11-19T19:00:13.827Z,1.60
2022-11-19T19:02:40.449Z,1.60
2022-11-19T19:05:07.628Z,1.60
2022-11-19T19:07:34.268Z,1.50
2022-11-19T19:10:00.935Z,1.50
2022-11-19T19:12:27.527Z,1.40
2022-11-19T19:14:54.652Z,1.40
2022-11-19T19:17:21.293Z,1.40
2022-11-19T19:19:49.025Z,1.40
2022-11-19T19:22:16.039Z,1.40
2022-11-19T19:24:42.756Z,1.40
2022-11-19T19:27:09.658Z,1.40
2022-11-19T19:29:36.602Z,1.40
2022-11-19T19:32:03.602Z,1.40
2022-11-19T19:34:30.528Z,1.40
2022-11-19T19:36:57.139Z,1.40
2022-11-19T19:39:24.134Z,1.40
2022-11-19T19:41:51.115Z,1.40
2022-11-19T19:44:17.743Z,1.20
2022-11-19T19:46:48.523Z,1.00
2022-11-19T19:49:15.423Z,0.80
2022-11-19T19:51:42.073Z,0.90
2022-11-19T19:54:08.698Z,1.00
2022-11-19T19:56:35.410Z,1.00
2022-11-19T19:59:02.361Z,1.00
2022-11-19T20:01:31.239Z,1.10
2022-11-19T20:04:11.010Z,1.20
2022-11-19T20:06:41.505Z,1.20
2022-11-19T20:09:09.140Z,1.20
2022-11-19T20:11:36.527Z,1.00
2022-11-19T20:14:03.204Z,0.90
2022-11-19T20:16:31.622Z,0.80
2022-11-19T20:19:00.375Z,0.70
2022-11-19T20:21:33.715Z,0.70
2022-11-19T20:24:00.417Z,0.60
2022-11-19T20:26:29.841Z,0.50
2022-11-19T20:28:58.991Z,0.50
2022-11-19T20:31:26.312Z,0.40
2022-11-19T20:33:59.017Z,0.50
2022-11-19T20:36:28.121Z,0.50
2022-11-19T20:38:57.396Z,0.60
2022-11-19T20:41:43.704Z,0.70
2022-11-19T20:44:20.766Z,0.80
2022-11-19T20:46:53.166Z,0.80
2022-11-19T20:49:21.540Z,0.80
2022-11-19T20:51:48.776Z,0.80
2022-11-19T20:54:15.713Z,0.80
2022-11-19T20:56:42.637Z,0.80
2022-11-19T20:59:09.782Z,0.90
2022-11-19T21:01:37.141Z,0.90
2022-11-19T21:04:04.350Z,0.90
2022-11-19T21:06:31.168Z,0.80
2022-11-19T21:08:57.951Z,0.90
2022-11-19T21:11:24.507Z,0.90
2022-11-19T21:13:51.169Z,0.80
2022-11-19T21:16:23.901Z,0.80
2022-11-19T21:18:51.110Z,0.80
2022-11-19T21:21:20.309Z,0.70
2022-11-19T21:23:46.914Z,0.70
2022-11-19T21:26:16.883Z,0.70
2022-11-19T21:28:46.756Z,0.70
2022-11-19T21:31:18.662Z,0.70
2022-11-19T21:33:46.001Z,0.70
2022-11-19T21:36:13.398Z,0.70
2022-11-19T21:38:40.486Z,0.60
2022-11-19T21:41:07.230Z,0.60
2022-11-19T21:43:34.090Z,0.70
2022-11-19T21:46:00.724Z,0.70
2022-11-19T21:48:27.474Z,0.70
2022-11-19T21:50:54.383Z,0.70
2022-11-19T21:53:21.309Z,0.60
2022-11-19T21:55:49.208Z,0.60
2022-11-19T21:58:16.656Z,0.60
2022-11-19T22:00:45.164Z,0.60
2022-11-19T22:03:11.834Z,0.50
2022-11-19T22:05:38.411Z,0.40
2022-11-19T22:08:05.177Z,0.40
2022-11-19T22:10:31.782Z,0.40
2022-11-19T22:12:58.870Z,0.40
2022-11-19T22:15:26.229Z,0.40
2022-11-19T22:17:52.992Z,0.40
2022-11-19T22:20:19.595Z,0.40
2022-11-19T22:22:46.493Z,0.40
2022-11-19T22:25:13.618Z,0.30
2022-11-19T22:27:41.680Z,0.30
2022-11-19T22:30:10.163Z,0.30
2022-11-19T22:32:37.044Z,0.30
2022-11-19T22:35:04.743Z,0.30
2022-11-19T22:37:31.892Z,0.30
2022-11-19T22:39:58.476Z,0.30
2022-11-19T22:42:25.061Z,0.30
2022-11-19T22:44:52.111Z,0.20
2022-11-19T22:47:18.733Z,0.20
2022-11-19T22:49:45.344Z,0.20
2022-11-19T22:52:14.482Z,0.20
2022-11-19T22:54:41.994Z,0.20
2022-11-19T22:57:09.242Z,0.10
2022-11-19T22:59:35.911Z,0.10
2022-11-19T23:02:02.618Z,0.10
2022-11-19T23:04:29.324Z,0.10
2022-11-19T23:06:56.212Z,0.10
2022-11-19T23:09:23.233Z,0.10
2022-11-19T23:12:08.801Z,0.10
2022-11-19T23:14:35.562Z,0.00
2022-11-19T23:17:02.198Z,0.00
2022-11-19T23:19:28.830Z,0.00
2022-11-19T23:21:55.390Z,0.00
2022-11-19T23:24:21.958Z,-0.10
2022-11-19T23:26:48.577Z,-0.10
2022-11-19T23:29:15.207Z,-0.10
2022-11-19T23:31:41.849Z,-0.10
2022-11-19T23:34:08.662Z,-0.10
2022-11-19T23:36:38.493Z,-0.10
2022-11-19T23:39:06.246Z,-0.10
2022-11-19T23:41:33.801Z,-0.20
2022-11-19T23:44:01.119Z,-0.20
2022-11-19T23:46:30.000Z,-0.20
2022-11-19T23:48:58.194Z,-0.20
2022-11-19T23:51:33.245Z,-0.20
2022-11-19T23:54:00.755Z,-0.20
2022-11-19T23:56:30.111Z,-0.20
2022-11-19T23:58:57.105Z,-0.20
